Time;durP1;ratioP1;P1;durP2;ratioP2;P2;SDS_P1;SDS_P2;PMS_P1;PMS_P2;Temp;Humidity;BMP_temperature;BMP_pressure;BME280_temperature;BME280_humidity;BME280_pressure;Samples;Min_cycle;Max_cycle;Signal;HPM_P1;HPM_P2
2021/04/30 00:02:25;;;;;;;4.08;2.50;;;;;;;6.28;54.95;101321.37;1786590;80;21252;-60
2021/04/30 00:04:58;;;;;;;5.08;2.37;;;;;;;6.29;55.04;101324.82;1785131;80;21858;-60
2021/04/30 00:07:31;;;;;;;9.40;3.50;;;;;;;6.29;55.14;101322.22;1786339;80;21252;-60
2021/04/30 00:10:05;;;;;;;5.03;3.05;;;;;;;6.30;55.24;101323.45;1785027;80;21715;-59
2021/04/30 00:12:37;;;;;;;;;;;;;;;6.32;55.29;101332.02;1789190;80;21703;-60
2021/04/30 00:15:11;;;;;;;8.85;4.05;;;;;;;6.32;55.57;101322.91;1784941;80;20551;-59
2021/04/30 00:17:44;;;;;;;7.15;4.10;;;;;;;6.30;55.81;101326.52;1786558;80;21683;-59
2021/04/30 00:20:17;;;;;;;7.72;3.72;;;;;;;6.27;55.54;101321.47;1785096;80;21868;-59
2021/04/30 00:22:51;;;;;;;8.13;4.12;;;;;;;6.27;55.77;101320.17;1786872;80;21260;-60
2021/04/30 00:25:24;;;;;;;8.37;4.30;;;;;;;6.23;55.84;101327.31;1785260;80;21204;-59
2021/04/30 00:27:57;;;;;;;9.63;4.53;;;;;;;6.19;55.79;101322.33;1786810;80;21679;-61
2021/04/30 00:30:30;;;;;;;3.08;2.30;;;;;;;6.18;55.85;101323.27;1785093;80;22537;-60
2021/04/30 00:33:03;;;;;;;4.67;2.60;;;;;;;6.17;55.74;101325.48;1785043;80;21299;-60
2021/04/30 00:35:36;;;;;;;6.93;2.93;;;;;;;6.16;55.63;101323.82;1785196;80;21310;-59
2021/04/30 00:38:09;;;;;;;6.10;2.50;;;;;;;6.17;55.74;101326.78;1786520;80;21790;-59
2021/04/30 00:40:42;;;;;;;8.27;2.77;;;;;;;6.15;55.71;101323.42;1785247;80;21729;-60
2021/04/30 00:43:16;;;;;;;5.80;3.77;;;;;;;6.16;55.66;101323.82;1786460;80;21667;-60
2021/04/30 00:45:52;;;;;;;3.58;2.40;;;;;;;6.14;55.68;101325.18;1784933;80;21145;-60
2021/04/30 00:48:24;;;;;;;6.00;2.77;;;;;;;6.13;55.64;101327.42;1786508;80;21161;-60
2021/04/30 00:50:57;;;;;;;9.25;4.55;;;;;;;6.13;55.67;101336.52;1785305;80;21133;-60
2021/04/30 00:53:30;;;;;;;13.03;6.50;;;;;;;6.12;55.69;101338.73;1786652;80;21149;-60
2021/04/30 00:56:03;;;;;;;13.13;6.50;;;;;;;6.11;55.81;101333.17;1785286;80;21176;-60
2021/04/30 00:58:36;;;;;;;11.90;6.05;;;;;;;6.10;56.12;101332.32;1786875;80;21731;-60
2021/04/30 01:01:09;;;;;;;15.32;8.10;;;;;;;6.07;56.49;101322.53;1784964;80;21778;-61
2021/04/30 01:03:46;;;;;;;17.00;9.58;;;;;;;6.05;56.95;101325.67;1786440;80;21268;-61
2021/04/30 01:06:19;;;;;;;12.53;6.00;;;;;;;6.00;57.40;101316.83;1784898;80;21196;-61
2021/04/30 01:08:52;;;;;;;21.25;10.08;;;;;;;5.95;57.45;101312.78;1786667;80;21648;-59
2021/04/30 01:11:25;;;;;;;18.00;7.53;;;;;;;5.90;58.06;101310.43;1785202;80;21208;-60
2021/04/30 01:13:59;;;;;;;13.83;6.62;;;;;;;5.84;58.44;101308.59;1786825;80;21763;-60
2021/04/30 01:16:32;;;;;;;12.37;5.75;;;;;;;5.78;58.89;101311.04;1784776;80;21164;-60
2021/04/30 01:19:05;;;;;;;13.32;6.33;;;;;;;5.72;58.85;101304.87;1786833;80;21640;-60
2021/04/30 01:21:38;;;;;;;15.47;7.73;;;;;;;5.69;59.34;101301.58;1785135;80;21812;-60
2021/04/30 01:24:12;;;;;;;7.92;4.87;;;;;;;5.65;59.73;101303.52;1786280;80;21228;-60
2021/04/30 01:26:45;;;;;;;10.05;5.37;;;;;;;5.57;59.72;101301.77;1784995;80;21263;-60
2021/04/30 01:29:18;;;;;;;7.65;4.30;;;;;;;5.51;59.82;101306.44;1786622;80;21683;-60
2021/04/30 01:31:51;;;;;;;13.48;5.35;;;;;;;5.48;60.07;101306.59;1784916;80;21735;-59
2021/04/30 01:34:24;;;;;;;11.73;3.65;;;;;;;5.42;60.38;101304.68;1786727;80;21806;-60
2021/04/30 01:36:57;;;;;;;11.15;5.25;;;;;;;5.41;60.49;101306.06;1785129;80;21203;-60
2021/04/30 01:39:30;;;;;;;7.95;3.87;;;;;;;5.39;60.52;101308.75;1786748;80;21774;-59
2021/04/30 01:42:06;;;;;;;7.65;3.62;;;;;;;5.38;60.51;101307.52;1784884;80;21695;-60
2021/04/30 01:44:39;;;;;;;11.30;4.37;;;;;;;5.38;60.44;101306.22;1786471;80;21125;-60
2021/04/30 01:47:13;;;;;;;5.92;3.42;;;;;;;5.38;60.56;101295.38;1784849;80;21300;-60
2021/04/30 01:49:46;;;;;;;6.67;3.23;;;;;;;5.40;60.54;101296.59;1752461;80;21766;-60
2021/04/30 01:52:21;;;;;;;;;;;;;;;5.41;60.36;101291.33;1788842;80;21276;-60
2021/04/30 01:54:53;;;;;;;7.70;3.98;;;;;;;5.43;60.31;101292.09;1786384;80;20270;-59
2021/04/30 01:57:26;;;;;;;8.28;4.05;;;;;;;5.41;60.46;101290.48;1786369;80;21263;-59
2021/04/30 01:59:59;;;;;;;12.95;4.72;;;;;;;5.41;60.45;101293.09;1786382;80;21271;-59
2021/04/30 02:02:46;;;;;;;9.40;4.80;;;;;;;5.41;60.59;101283.55;1786696;80;21161;-59
2021/04/30 02:05:21;;;;;;;8.08;4.67;;;;;;;5.37;60.76;101283.30;1786436;80;21141;-59
2021/04/30 02:07:53;;;;;;;8.88;5.20;;;;;;;5.34;60.80;101282.63;1786513;80;21272;-59
2021/04/30 02:10:26;;;;;;;7.47;3.70;;;;;;;5.30;60.96;101284.53;1786762;80;21668;-59
2021/04/30 02:12:59;;;;;;;6.65;3.70;;;;;;;5.28;61.11;101290.26;1786483;80;21779;-59
2021/04/30 02:15:37;;;;;;;22.32;5.08;;;;;;;5.27;61.07;101278.22;1786634;80;21798;-60
2021/04/30 02:18:09;;;;;;;12.05;4.30;;;;;;;5.29;61.23;101276.83;1786272;80;21703;-60
2021/04/30 02:20:43;;;;;;;10.70;4.27;;;;;;;5.35;61.22;101270.01;1751666;80;21302;-60
2021/04/30 02:23:16;;;;;;;5.62;3.08;;;;;;;5.45;61.09;101269.47;1786076;80;21121;-60
2021/04/30 02:25:49;;;;;;;5.60;3.40;;;;;;;5.56;60.86;101268.09;1786584;80;21183;-59
2021/04/30 02:28:22;;;;;;;7.90;2.97;;;;;;;5.66;60.63;101269.29;1786844;80;21620;-59
2021/04/30 02:30:55;;;;;;;7.00;3.85;;;;;;;5.77;60.42;101263.91;1754096;80;21256;-59
2021/04/30 02:33:28;;;;;;;7.33;3.45;;;;;;;5.87;60.38;101269.48;1744129;82;21221;-59
2021/04/30 02:44:13;;;;;;;5.22;3.27;;;;;;;6.42;59.52;101265.58;1867471;75;27990;-60
2021/04/30 02:46:45;;;;;;;5.62;3.17;;;;;;;6.48;59.27;101261.77;1824577;77;21779;-62
2021/04/30 02:49:26;;;;;;;6.62;3.12;;;;;;;6.60;59.03;101271.49;1821939;76;21252;-62
2021/04/30 02:51:54;;;;;;;5.12;3.02;;;;;;;6.75;58.73;101276.69;1863887;75;21826;-63
2021/04/30 02:54:27;;;;;;;4.55;2.75;;;;;;;6.93;58.46;101265.67;1842028;76;21823;-63
2021/04/30 02:57:00;;;;;;;5.10;3.25;;;;;;;7.10;57.88;101269.44;1847064;76;21136;-63
2021/04/30 02:59:33;;;;;;;5.20;2.67;;;;;;;7.27;57.46;101265.84;1835584;76;21805;-62
2021/04/30 03:02:06;;;;;;;4.80;2.80;;;;;;;7.44;57.34;101276.95;1823210;77;22014;-63
2021/04/30 03:04:40;;;;;;;4.50;2.52;;;;;;;7.69;56.95;101276.30;1829857;77;21313;-63
2021/04/30 03:07:14;;;;;;;6.97;3.12;;;;;;;7.91;56.07;101280.58;1831277;77;21278;-64
2021/04/30 03:09:46;;;;;;;4.25;2.77;;;;;;;8.12;55.72;101270.58;1825701;77;21368;-63
2021/04/30 03:12:20;;;;;;;3.47;2.47;;;;;;;8.34;55.30;101272.25;1820358;77;21684;-63
2021/04/30 03:14:53;;;;;;;3.67;2.02;;;;;;;8.57;54.60;101270.31;1830386;77;21269;-62
2021/04/30 03:17:26;;;;;;;2.45;2.10;;;;;;;8.76;53.83;101270.80;1820327;77;21324;-62
2021/04/30 03:19:59;;;;;;;4.15;2.10;;;;;;;8.86;53.32;101268.42;1825563;77;21763;-61
2021/04/30 03:22:32;;;;;;;3.37;2.40;;;;;;;9.10;52.91;101271.22;1832133;77;21226;-61
2021/04/30 03:25:06;;;;;;;4.22;2.30;;;;;;;9.29;52.41;101276.89;1842901;76;21316;-61
2021/04/30 03:27:39;;;;;;;4.22;2.42;;;;;;;9.46;51.91;101283.94;1844875;77;21668;-62
2021/04/30 03:30:14;;;;;;;3.77;2.47;;;;;;;9.59;51.69;101281.80;1838444;76;21743;-61
2021/04/30 03:32:47;;;;;;;5.58;2.40;;;;;;;9.75;51.35;101278.02;1843506;75;21803;-62
2021/04/30 03:35:20;;;;;;;2.12;1.80;;;;;;;9.92;51.01;101276.39;1837163;77;21349;-62
2021/04/30 03:37:53;;;;;;;3.05;2.15;;;;;;;10.18;50.51;101288.13;1836361;77;21796;-62
2021/04/30 03:40:26;;;;;;;3.62;1.90;;;;;;;10.55;49.81;101279.34;1827774;77;21730;-62
2021/04/30 03:43:01;;;;;;;7.58;2.92;;;;;;;11.02;48.74;101269.28;1807112;77;21201;-61
2021/04/30 03:45:34;;;;;;;5.20;2.30;;;;;;;11.40;47.83;101268.55;1792092;79;21262;-62
2021/04/30 03:48:08;;;;;;;3.87;2.20;;;;;;;11.93;47.08;101263.97;1788731;78;21376;-63
2021/04/30 03:50:42;;;;;;;3.87;2.47;;;;;;;12.67;46.10;101265.84;1790815;78;21858;-63
2021/04/30 03:53:16;;;;;;;4.47;1.82;;;;;;;13.49;44.47;101259.00;1775272;79;21831;-63
2021/04/30 03:55:49;;;;;;;;;;;;;;;14.15;42.42;101266.33;1800656;79;21783;-64
2021/04/30 03:58:22;;;;;;;4.03;2.08;;;;;;;14.74;41.45;101274.69;1770544;79;20173;-65
2021/04/30 04:00:55;;;;;;;3.30;2.00;;;;;;;15.37;39.99;101268.83;1779482;79;21329;-64
2021/04/30 04:03:28;;;;;;;4.60;2.10;;;;;;;15.96;38.89;101268.52;1780476;79;21229;-62
2021/04/30 04:06:01;;;;;;;4.50;1.90;;;;;;;16.51;37.99;101269.79;1796966;78;21151;-63
2021/04/30 04:08:35;;;;;;;7.40;2.00;;;;;;;17.16;37.16;101269.92;1790634;78;21304;-63
2021/04/30 04:11:08;;;;;;;7.70;2.60;;;;;;;18.41;34.98;101261.33;1778900;79;21353;-64
2021/04/30 04:13:41;;;;;;;3.43;2.00;;;;;;;18.41;34.98;101261.33;1797052;78;21210;-65
2021/04/30 04:16:14;;;;;;;3.22;2.05;;;;;;;18.96;33.14;101262.42;1786733;79;21321;-63
2021/04/30 04:18:47;;;;;;;2.42;1.65;;;;;;;19.32;32.74;101246.45;1785256;78;21281;-66
2021/04/30 04:21:20;;;;;;;2.47;1.57;;;;;;;19.53;31.66;101246.45;1796870;78;21261;-66
2021/04/30 04:23:53;;;;;;;5.25;1.65;;;;;;;19.70;31.08;101240.94;1800815;77;22416;-63
2021/04/30 04:26:26;;;;;;;1.77;1.20;;;;;;;19.86;30.91;101259.47;1804952;78;21267;-63
2021/04/30 04:29:00;;;;;;;3.45;1.35;;;;;;;20.11;30.24;101243.73;1800761;77;21210;-64
2021/04/30 04:31:35;;;;;;;2.05;1.25;;;;;;;20.51;29.36;101245.38;1805114;78;21195;-65
2021/04/30 04:34:08;;;;;;;6.50;1.40;;;;;;;20.78;28.72;101235.52;1820586;77;21204;-64
2021/04/30 04:36:41;;;;;;;2.75;1.25;;;;;;;21.04;28.18;101244.44;1806266;77;21145;-63
2021/04/30 04:39:14;;;;;;;3.50;1.42;;;;;;;21.20;27.65;101235.53;1822890;77;21814;-63
2021/04/30 04:41:48;;;;;;;2.05;1.07;;;;;;;21.34;27.58;101242.70;1827270;77;21367;-64
2021/04/30 04:44:21;;;;;;;4.65;1.12;;;;;;;21.38;27.15;101238.16;1824230;77;21156;-64
2021/04/30 04:46:54;;;;;;;2.50;1.42;;;;;;;21.31;27.28;101225.75;1812397;77;21129;-64
2021/04/30 04:49:26;;;;;;;5.20;1.75;;;;;;;21.27;27.34;101223.14;1814220;77;21802;-65
2021/04/30 04:52:01;;;;;;;3.92;1.20;;;;;;;21.44;27.41;101216.14;1831020;77;21342;-65
2021/04/30 04:54:34;;;;;;;5.15;1.22;;;;;;;21.57;26.54;101208.81;1795635;77;21263;-65
2021/04/30 04:57:07;;;;;;;1.50;1.12;;;;;;;21.41;26.48;101198.34;1804595;76;21279;-64
2021/04/30 04:59:40;;;;;;;4.40;1.45;;;;;;;21.24;26.88;101202.19;1786943;77;21349;-66
2021/04/30 05:02:13;;;;;;;25.70;3.13;;;;;;;21.34;26.54;101212.08;1791956;77;21307;-67
2021/04/30 05:04:47;;;;;;;4.03;1.40;;;;;;;21.35;26.62;101227.86;1812941;76;21313;-63
2021/04/30 05:07:20;;;;;;;1.77;1.20;;;;;;;21.28;26.89;101223.47;1808298;77;21384;-66
2021/04/30 05:09:53;;;;;;;2.37;1.10;;;;;;;21.35;26.88;101215.08;1811583;76;22481;-66
2021/04/30 05:12:26;;;;;;;1.62;1.20;;;;;;;21.67;26.81;101220.03;1813394;76;21326;-67
2021/04/30 05:14:59;;;;;;;2.42;1.20;;;;;;;21.89;26.29;101223.13;1815361;76;21195;-68
2021/04/30 05:17:32;;;;;;;2.05;1.02;;;;;;;21.95;26.12;101223.70;1795759;76;21343;-63
2021/04/30 05:20:06;;;;;;;2.60;1.00;;;;;;;21.93;26.03;101227.06;1770926;78;21341;-69
2021/04/30 05:22:41;;;;;;;2.02;1.17;;;;;;;21.84;25.98;101216.66;1801960;77;21279;-65
2021/04/30 05:25:15;;;;;;;2.05;1.15;;;;;;;21.89;25.95;101210.30;1805533;76;21354;-66
2021/04/30 05:27:49;;;;;;;2.33;1.10;;;;;;;21.90;26.08;101215.42;1769429;77;21227;-63
2021/04/30 05:30:23;;;;;;;2.05;1.25;;;;;;;22.19;25.83;101211.88;1741049;80;21284;-71
2021/04/30 05:32:56;;;;;;;2.95;0.93;;;;;;;22.50;25.62;101219.59;1757720;79;21228;-66
2021/04/30 05:35:29;;;;;;;2.77;1.12;;;;;;;22.66;25.16;101212.18;1804230;77;21307;-68
2021/04/30 05:38:04;;;;;;;2.58;1.12;;;;;;;22.92;25.26;101200.09;1802775;77;21318;-63
2021/04/30 05:40:37;;;;;;;6.22;1.40;;;;;;;23.37;25.06;101186.27;1796240;77;21263;-67
2021/04/30 05:43:10;;;;;;;;;;;;;;;23.69;24.06;101191.48;1808217;77;21743;-69
2021/04/30 05:45:50;;;;;;;2.35;1.20;;;;;;;23.71;24.20;101194.27;1793212;77;20354;-67
2021/04/30 05:48:18;;;;;;;6.00;1.55;;;;;;;23.84;24.14;101166.73;1807353;77;21307;-67
2021/04/30 05:50:50;;;;;;;6.65;1.42;;;;;;;23.84;24.14;101166.73;1810657;77;21312;-73
2021/04/30 05:53:23;;;;;;;3.58;1.50;;;;;;;24.03;23.74;101196.73;1805011;77;21328;-74
2021/04/30 05:55:56;;;;;;;2.45;1.17;;;;;;;23.99;23.77;101156.21;1798707;77;22119;-73
2021/04/30 05:58:29;;;;;;;4.45;1.50;;;;;;;23.97;23.96;101163.62;1809263;77;21282;-70
2021/04/30 06:01:02;;;;;;;2.35;1.20;;;;;;;24.01;24.10;101162.17;1771435;79;21291;-65
2021/04/30 06:03:34;;;;;;;1.50;1.22;;;;;;;24.09;23.69;101150.51;1757471;79;22529;-62
2021/04/30 06:06:07;;;;;;;2.52;1.22;;;;;;;24.07;24.18;101149.89;1745218;80;22475;-67
2021/04/30 06:08:40;;;;;;;1.98;1.17;;;;;;;24.30;24.04;101142.31;1749298;80;21338;-69
2021/04/30 06:11:14;;;;;;;4.35;1.10;;;;;;;24.61;23.59;101147.89;1752126;79;21304;-64
2021/04/30 06:13:48;;;;;;;5.70;1.67;;;;;;;24.79;23.15;101157.20;1806689;77;21258;-63
2021/04/30 06:16:22;;;;;;;4.60;1.30;;;;;;;24.72;23.41;101131.70;1807568;77;21429;-68
2021/04/30 06:18:55;;;;;;;;;;;;;;;24.68;23.65;101141.19;1818640;77;21306;-70
2021/04/30 06:21:28;;;;;;;3.02;1.17;;;;;;;24.71;23.55;101144.80;1800907;78;20285;-71
2021/04/30 06:24:02;;;;;;;4.03;1.35;;;;;;;24.46;23.56;101149.11;1805250;77;21806;-65
2021/04/30 06:26:35;;;;;;;1.98;1.17;;;;;;;24.12;23.81;101154.63;1810214;77;21220;-70
2021/04/30 06:29:11;;;;;;;2.52;1.02;;;;;;;23.98;24.14;101140.34;1798102;77;21314;-68
2021/04/30 06:31:44;;;;;;;3.62;1.45;;;;;;;24.19;24.05;101150.95;1799918;77;21145;-66
2021/04/30 06:34:17;;;;;;;2.50;1.40;;;;;;;24.60;23.92;101166.31;1813311;77;21376;-66
2021/04/30 06:36:50;;;;;;;2.85;1.20;;;;;;;24.75;24.08;101147.37;1809053;77;21393;-68
2021/04/30 06:39:24;;;;;;;3.47;1.30;;;;;;;24.92;23.74;101139.77;1797173;76;21269;-67
2021/04/30 06:42:01;;;;;;;3.27;1.40;;;;;;;24.98;23.88;101145.10;1803542;76;21270;-66
2021/04/30 06:44:32;;;;;;;2.22;1.10;;;;;;;25.24;24.15;101138.89;1807229;77;21192;-68
2021/04/30 06:47:05;;;;;;;4.60;1.30;;;;;;;25.51;23.76;101155.75;1817912;77;21293;-68
2021/04/30 06:49:39;;;;;;;2.50;1.32;;;;;;;25.56;23.54;101145.19;1810192;77;21214;-65
2021/04/30 06:52:11;;;;;;;2.87;1.25;;;;;;;25.67;23.76;101130.62;1776935;79;21356;-64
2021/04/30 06:54:45;;;;;;;2.40;1.42;;;;;;;26.13;23.36;101137.63;1809288;77;21172;-67
2021/04/30 06:57:20;;;;;;;2.33;1.35;;;;;;;26.49;21.95;101145.30;1804331;77;21307;-68
2021/04/30 06:59:53;;;;;;;2.75;1.22;;;;;;;26.58;21.86;101146.67;1797585;77;21180;-67
2021/04/30 07:02:26;;;;;;;1.98;1.27;;;;;;;26.82;21.83;101136.19;1807871;77;21271;-69
2021/04/30 07:05:02;;;;;;;1.47;1.02;;;;;;;26.95;21.42;101134.19;1812407;77;21279;-75
2021/04/30 07:07:36;;;;;;;2.72;1.22;;;;;;;27.22;21.22;101141.46;1807967;76;21329;-71
2021/04/30 07:10:13;;;;;;;2.35;1.20;;;;;;;27.48;21.08;101137.16;1809978;76;21287;-69
2021/04/30 07:12:46;;;;;;;4.33;1.12;;;;;;;27.74;20.73;101124.72;1807105;77;21834;-67
2021/04/30 07:15:19;;;;;;;1.95;1.12;;;;;;;28.01;20.43;101122.52;1794868;77;22517;-66
2021/04/30 07:17:53;;;;;;;2.12;1.35;;;;;;;28.40;20.04;101123.77;1810339;77;21140;-73
2021/04/30 07:20:27;;;;;;;1.85;1.20;;;;;;;28.95;19.78;101122.42;1805237;77;21198;-69
2021/04/30 07:23:00;;;;;;;3.90;1.30;;;;;;;29.33;19.40;101116.53;1743174;79;21164;-73
2021/04/30 07:25:34;;;;;;;5.17;1.67;;;;;;;29.65;19.25;101112.86;1770465;78;21556;-66
2021/04/30 07:28:09;;;;;;;2.17;1.40;;;;;;;29.79;18.88;101118.29;1740901;80;21274;-68
2021/04/30 07:30:42;;;;;;;2.30;1.40;;;;;;;29.75;19.19;101111.72;1730980;81;21359;-69
2021/04/30 07:33:15;;;;;;;1.82;1.05;;;;;;;29.65;18.98;101108.30;1733773;80;21282;-71
2021/04/30 07:35:48;;;;;;;2.47;1.45;;;;;;;29.33;19.59;101102.52;1736025;79;21917;-70
2021/04/30 07:38:21;;;;;;;5.62;1.65;;;;;;;29.18;19.84;101096.83;1743232;79;22104;-70
2021/04/30 07:40:54;;;;;;;4.28;1.80;;;;;;;29.09;19.65;101089.31;1743231;80;21930;-69
2021/04/30 07:43:27;;;;;;;2.30;1.40;;;;;;;29.23;19.82;101084.77;1734381;80;21258;-65
2021/04/30 07:46:00;;;;;;;4.45;1.82;;;;;;;29.54;19.60;101090.28;1728738;80;22204;-65
2021/04/30 07:48:33;;;;;;;5.28;1.40;;;;;;;29.74;19.57;101089.82;1736873;80;21900;-65
2021/04/30 07:51:07;;;;;;;2.55;1.67;;;;;;;29.73;19.73;101088.20;1772025;79;22751;-70
2021/04/30 07:53:41;;;;;;;1.40;1.12;;;;;;;29.55;20.00;101068.96;1753059;79;21340;-66
2021/04/30 07:56:15;;;;;;;2.12;1.20;;;;;;;29.65;19.99;101080.48;1749246;79;21263;-67
2021/04/30 07:58:49;;;;;;;11.05;2.83;;;;;;;29.44;20.03;101077.11;1813542;76;21311;-66
2021/04/30 08:01:22;;;;;;;4.97;1.52;;;;;;;29.25;20.56;101082.69;1811097;77;21344;-67
2021/04/30 08:03:55;;;;;;;1.82;1.40;;;;;;;29.10;20.75;101068.84;1813049;77;21137;-68
2021/04/30 08:06:28;;;;;;;3.08;1.55;;;;;;;29.05;21.28;101068.73;1805456;76;21325;-70
2021/04/30 08:09:01;;;;;;;3.02;1.60;;;;;;;29.03;21.37;101088.90;1805238;77;21273;-70
2021/04/30 08:11:37;;;;;;;;;;;;;;;28.89;21.64;101073.52;1807112;77;21278;-65
2021/04/30 08:14:10;;;;;;;2.95;1.60;;;;;;;28.70;22.04;101059.88;1804428;77;20223;-71
2021/04/30 08:16:43;;;;;;;3.42;1.60;;;;;;;28.51;22.44;101060.50;1809374;77;21196;-65
2021/04/30 08:19:16;;;;;;;2.20;1.50;;;;;;;28.38;22.44;101062.06;1808641;76;21303;-66
2021/04/30 08:21:50;;;;;;;5.47;1.82;;;;;;;27.92;23.29;101068.66;1799573;77;21376;-64
2021/04/30 08:24:23;;;;;;;6.78;1.90;;;;;;;27.42;23.91;101045.81;1810176;77;21884;-68
2021/04/30 08:26:58;;;;;;;3.67;1.87;;;;;;;27.46;24.34;101059.09;1806492;76;21338;-70
2021/04/30 08:29:32;;;;;;;4.65;1.82;;;;;;;27.48;24.21;101052.95;1807781;77;21133;-67
2021/04/30 08:32:05;;;;;;;2.47;1.70;;;;;;;27.48;24.04;101056.99;1792146;77;21347;-68
2021/04/30 08:34:39;;;;;;;5.08;1.67;;;;;;;27.58;23.97;101046.52;1792007;77;21299;-67
2021/04/30 08:37:14;;;;;;;4.95;1.90;;;;;;;27.86;24.01;101044.03;1800530;77;21355;-74
2021/04/30 08:39:47;;;;;;;2.90;1.65;;;;;;;28.08;23.57;101034.41;1812042;77;21283;-66
2021/04/30 08:42:20;;;;;;;2.65;1.55;;;;;;;28.14;23.63;101021.87;1810565;76;21342;-73
2021/04/30 08:44:54;;;;;;;6.25;1.92;;;;;;;28.35;23.60;101016.73;1802526;77;21296;-67
2021/04/30 08:47:26;;;;;;;;;;;;;;;28.48;23.32;101010.30;1812408;77;21824;-65
2021/04/30 08:49:59;;;;;;;3.62;1.47;;;;;;;28.51;23.13;101002.58;1805600;77;20224;-68
2021/04/30 08:52:33;;;;;;;2.27;1.32;;;;;;;28.56;22.53;101003.22;1810709;77;21235;-65
2021/04/30 08:55:11;;;;;;;3.12;1.40;;;;;;;28.20;22.82;101003.45;1764774;79;21279;-67
2021/04/30 08:57:44;;;;;;;3.17;1.60;;;;;;;27.85;23.13;100997.97;1734622;80;21310;-69
2021/04/30 09:00:18;;;;;;;2.50;1.42;;;;;;;27.64;23.38;100983.20;1735946;80;21253;-67
2021/04/30 09:02:51;;;;;;;5.03;1.65;;;;;;;27.50;23.76;100975.03;1737451;81;21384;-62
2021/04/30 09:05:28;;;;;;;2.90;1.70;;;;;;;27.18;24.12;100981.64;1738214;80;21320;-66
2021/04/30 09:08:02;;;;;;;2.85;1.70;;;;;;;26.96;24.54;100995.28;1734012;80;21347;-68
2021/04/30 09:10:48;;;;;;;3.85;1.60;;;;;;;26.73;24.73;100972.56;1725815;80;21342;-69
2021/04/30 09:13:16;;;;;;;3.33;1.60;;;;;;;26.30;25.12;100989.23;1714573;79;21206;-64
2021/04/30 09:16:07;;;;;;;1.75;1.30;;;;;;;25.82;26.32;100976.91;1725916;81;21330;-67
2021/04/30 09:18:41;;;;;;;6.05;1.67;;;;;;;25.61;26.42;100979.95;1727884;80;21236;-63
2021/04/30 09:21:14;;;;;;;3.17;1.72;;;;;;;25.46;26.76;100975.94;1724494;81;21345;-71
2021/04/30 09:23:48;;;;;;;7.35;1.67;;;;;;;25.42;26.82;100969.63;1724466;81;21344;-72
2021/04/30 09:26:33;;;;;;;6.58;2.05;;;;;;;24.83;27.38;100961.58;1742464;80;21300;-68
2021/04/30 09:29:09;;;;;;;2.58;1.60;;;;;;;24.77;27.83;100951.72;1755596;79;21355;-67
2021/04/30 09:31:44;;;;;;;3.02;2.15;;;;;;;25.12;27.48;100952.49;1745534;80;21276;-67
2021/04/30 09:34:27;;;;;;;5.37;2.40;;;;;;;25.25;27.33;100965.80;1807929;77;21394;-69
2021/04/30 09:37:13;;;;;;;3.15;1.80;;;;;;;25.01;27.64;100950.47;1767828;78;22005;-65
2021/04/30 09:40:01;;;;;;;3.37;1.70;;;;;;;24.41;28.15;100945.52;1795558;77;21183;-69
2021/04/30 09:42:37;;;;;;;4.25;2.02;;;;;;;23.80;29.11;100947.06;1800461;76;22529;-68
2021/04/30 09:45:10;;;;;;;5.87;1.98;;;;;;;23.43;30.12;100945.78;1809881;76;21318;-68
2021/04/30 09:47:45;;;;;;;2.87;1.90;;;;;;;23.11;30.35;100942.50;1800326;77;21275;-66
2021/04/30 09:50:28;;;;;;;3.67;1.77;;;;;;;22.89;30.88;100940.97;1753473;78;21164;-69
2021/04/30 09:53:07;;;;;;;9.68;2.40;;;;;;;22.69;31.60;100939.54;1807437;77;21288;-65
2021/04/30 09:55:48;;;;;;;2.70;1.90;;;;;;;22.56;31.71;100931.45;1805590;77;21314;-67
2021/04/30 09:58:26;;;;;;;4.33;2.00;;;;;;;22.46;32.07;100932.31;1806285;77;21291;-65
2021/04/30 10:01:01;;;;;;;5.37;2.00;;;;;;;22.30;32.65;100925.97;1795613;77;21168;-64
2021/04/30 10:03:37;;;;;;;2.72;1.90;;;;;;;22.17;32.76;100927.20;1794493;77;21261;-68
2021/04/30 10:06:21;;;;;;;5.70;1.90;;;;;;;22.08;33.05;100924.38;1795442;77;23131;-67
2021/04/30 10:09:10;;;;;;;2.50;1.55;;;;;;;22.14;33.21;100928.41;1800828;77;21168;-69
2021/04/30 10:11:44;;;;;;;3.27;1.60;;;;;;;22.31;33.33;100922.77;1806510;76;21829;-64
2021/04/30 10:14:16;;;;;;;5.37;2.40;;;;;;;22.38;33.35;100920.99;1804013;77;21243;-70
2021/04/30 10:16:53;;;;;;;3.50;1.60;;;;;;;22.43;33.42;100919.86;1769968;79;21346;-67
2021/04/30 10:19:28;;;;;;;7.40;1.85;;;;;;;22.36;33.50;100911.83;1751607;80;21304;-69
2021/04/30 10:22:02;;;;;;;2.52;1.67;;;;;;;22.30;33.92;100907.30;1715505;79;21330;-63
2021/04/30 10:24:35;;;;;;;3.90;1.92;;;;;;;22.19;34.66;100923.02;1761738;79;21340;-64
2021/04/30 10:27:18;;;;;;;6.78;2.20;;;;;;;22.06;34.70;100901.91;1799954;76;21593;-67
2021/04/30 10:30:06;;;;;;;10.48;2.10;;;;;;;22.06;34.88;100904.58;1793097;77;21863;-69
2021/04/30 10:33:08;;;;;;;11.43;2.27;;;;;;;22.04;34.53;100893.80;1806591;77;21245;-68
2021/04/30 10:36:21;;;;;;;6.87;2.22;;;;;;;22.08;34.69;100888.37;1755535;77;21136;-69
2021/04/30 10:38:55;;;;;;;8.40;2.27;;;;;;;22.17;34.89;100883.20;1765853;78;21379;-67
2021/04/30 10:41:37;;;;;;;2.97;2.10;;;;;;;22.36;34.47;100879.81;1795712;77;21350;-66
2021/04/30 10:44:17;;;;;;;8.45;2.20;;;;;;;22.42;34.83;100875.04;1809600;78;21362;-65
2021/04/30 10:46:53;;;;;;;4.95;2.08;;;;;;;22.35;35.07;100869.36;1803995;77;21267;-67
2021/04/30 10:49:27;;;;;;;4.53;2.10;;;;;;;22.21;35.47;100864.97;1808251;77;21267;-63
2021/04/30 10:52:20;;;;;;;9.40;2.50;;;;;;;22.05;35.67;100872.25;1804358;77;21303;-68
